Floweree, MT

10:16 MDT le 01 octobre 2014 (GMT -0600)
Malmstrom AFB | Change Station
CLOSE
Current Station
Aéroport
Location: Malmstrom AFB,
Altitude: 3527 ft
Stations météo à proximité

Alt. 3527 ft 47.50 °N, 111.19 °W | Updated 20 minutes ago

Mostly Cloudy
Nuageux
49 ° F
Paraît 49 ° F
N
10
Vent Variable Vent de OSO

Aujourd'hui
Haut(e) -- | Bas -- ° F
--% Risque de précip.
Hier
Haut(e) -- | Bas -- ° F
Precip. -- pouce
7:23 AM 7:03 PM
Lune montante, 49% visible
Pression 30.05 pouce
Visibilité 10.0 Miles terrestres
Nuages Peu 10000 ft
Peu 12000 ft
Nuageux 14000 ft
Point de rosée 41 ° F
Humidité 74%
Précipitations 0.01 pouce
Profondeur de la couche neigeuse 1 in , 0 in , 0 in
UV 1 sur 12
Pollen 4.70 sur 12
Qualité de l'air Non disponible.
Flu Activity Non disponible.
METAR KGFA 011556Z AUTO 25009KT 10SM FEW100 FEW120 BKN140 10/05 A3000 RMK AO2 SLP175 T00950051

More Conditions Fewer Conditions

Pression 30.05 pouce
Visibilité 10.0 Miles terrestres
Nuages Peu 10000 ft
Peu 12000 ft
Nuageux 14000 ft
Point de rosée 41 ° F
Humidité 74%
Précipitations 0.01 pouce
Profondeur de la couche neigeuse 1 in , 0 in , 0 in
UV 1 sur 12
Pollen 4.70 sur 12
Qualité de l'air Non disponible.
Flu Activity Non disponible.
METAR KGFA 011556Z AUTO 25009KT 10SM FEW100 FEW120 BKN140 10/05 A3000 RMK AO2 SLP175 T00950051

More Conditions Fewer Conditions

10-Day Weather Forecast

Almanac

Astronomie

Oct. 01, 2014 Lever Coucher
Temps réel 07:23 MDT 19:03 MDT
Crépuscule civil 06:53 MDT 19:34 MDT
Crépuscule nautique 06:17 MDT 20:10 MDT
Crépuscule astronomique 05:40 MDT 20:46 MDT
Lune 14:46 MDT Pas de coucher de lune
Durée de lumière visible 12h 41m
Longueur du jour
11h 40m
Tomorrow will be 3m 24s shorter.
Lune montante, 49% of the Moon is Illuminated
Aujourd'hui
Lune montante
Oct 1
Premier quartier
Oct 8
Pleine lune
Oct 15
Dernier quartier
Oct 23
Nouveau

Extrêmes aujourd'hui

State Highs State Lows

Community

WunderPhotos

Upload Photos

1,757,976 Photos téléchargées !

WunderBlogs® & News

Nearby

Épaisseur de neige

Station Depth Altitude
Mule Creek 1 in 8300 ft
Daly Creek 0 in 5780 ft
Nevada Ridge 0 in 7020 ft
Northeast Entrance 0 in 7350 ft
Emery Creek 0 in 4350 ft

Activité sismique

Ville Distance Mag. Time & Date
No recent earthquake activity has been reported nearby.
Minimum magnitude displayed is 2.5.

Températures des eaux côtières

Lieu Température
Aucun rapport de station

Stations météo à proximité